sensor_id;sensor_type;location;lat;lon;timestamp;P1;durP1;ratioP1;P2;durP2;ratioP2
12878;SDS011;20617;49.476;10.986;2023-04-29T00:01:15;2.17;;;1.98;;
12878;SDS011;20617;49.476;10.986;2023-04-29T00:03:24;2.00;;;1.70;;
12878;SDS011;20617;49.476;10.986;2023-04-29T00:05:31;2.00;;;1.67;;
12878;SDS011;20617;49.476;10.986;2023-04-29T00:07:39;2.08;;;1.88;;
12878;SDS011;20617;49.476;10.986;2023-04-29T00:09:44;3.33;;;2.20;;
12878;SDS011;20617;49.476;10.986;2023-04-29T00:11:49;2.63;;;2.08;;
12878;SDS011;20617;49.476;10.986;2023-04-29T00:13:54;3.83;;;2.20;;
12878;SDS011;20617;49.476;10.986;2023-04-29T00:15:59;3.35;;;2.22;;
12878;SDS011;20617;49.476;10.986;2023-04-29T00:18:04;2.67;;;2.20;;
12878;SDS011;20617;49.476;10.986;2023-04-29T00:20:10;2.40;;;2.15;;
12878;SDS011;20617;49.476;10.986;2023-04-29T00:22:16;2.55;;;1.73;;
12878;SDS011;20617;49.476;10.986;2023-04-29T00:24:25;2.33;;;2.00;;
12878;SDS011;20617;49.476;10.986;2023-04-29T00:26:30;3.20;;;2.28;;
12878;SDS011;20617;49.476;10.986;2023-04-29T00:28:36;2.47;;;2.03;;
12878;SDS011;20617;49.476;10.986;2023-04-29T00:30:40;2.10;;;1.88;;
12878;SDS011;20617;49.476;10.986;2023-04-29T00:34:50;4.25;;;3.05;;
12878;SDS011;20617;49.476;10.986;2023-04-29T00:36:56;3.10;;;2.80;;
12878;SDS011;20617;49.476;10.986;2023-04-29T00:39:01;3.15;;;2.50;;
12878;SDS011;20617;49.476;10.986;2023-04-29T00:41:11;2.78;;;2.25;;
12878;SDS011;20617;49.476;10.986;2023-04-29T00:43:17;2.90;;;2.35;;
12878;SDS011;20617;49.476;10.986;2023-04-29T00:45:22;3.45;;;2.50;;
12878;SDS011;20617;49.476;10.986;2023-04-29T00:47:28;2.88;;;2.50;;
12878;SDS011;20617;49.476;10.986;2023-04-29T00:49:35;2.50;;;2.30;;
12878;SDS011;20617;49.476;10.986;2023-04-29T00:51:41;5.07;;;2.83;;
12878;SDS011;20617;49.476;10.986;2023-04-29T00:53:46;2.75;;;2.40;;
12878;SDS011;20617;49.476;10.986;2023-04-29T00:55:51;2.70;;;2.42;;
12878;SDS011;20617;49.476;10.986;2023-04-29T00:57:59;2.88;;;2.38;;
12878;SDS011;20617;49.476;10.986;2023-04-29T01:00:07;3.05;;;2.50;;
12878;SDS011;20617;49.476;10.986;2023-04-29T01:02:14;2.42;;;2.05;;
12878;SDS011;20617;49.476;10.986;2023-04-29T01:04:21;3.80;;;2.35;;
12878;SDS011;20617;49.476;10.986;2023-04-29T01:08:38;3.03;;;2.50;;
12878;SDS011;20617;49.476;10.986;2023-04-29T01:10:56;3.47;;;2.72;;
12878;SDS011;20617;49.476;10.986;2023-04-29T01:13:16;3.78;;;2.92;;
12878;SDS011;20617;49.476;10.986;2023-04-29T01:15:27;3.45;;;2.50;;
12878;SDS011;20617;49.476;10.986;2023-04-29T01:17:38;5.85;;;2.70;;
12878;SDS011;20617;49.476;10.986;2023-04-29T01:19:49;3.83;;;2.45;;
12878;SDS011;20617;49.476;10.986;2023-04-29T01:21:56;4.30;;;2.30;;
12878;SDS011;20617;49.476;10.986;2023-04-29T01:24:05;4.10;;;2.60;;
12878;SDS011;20617;49.476;10.986;2023-04-29T01:26:10;3.03;;;2.40;;
12878;SDS011;20617;49.476;10.986;2023-04-29T01:28:41;2.60;;;2.33;;
12878;SDS011;20617;49.476;10.986;2023-04-29T01:30:52;3.08;;;2.15;;
12878;SDS011;20617;49.476;10.986;2023-04-29T01:33:05;2.55;;;2.15;;
12878;SDS011;20617;49.476;10.986;2023-04-29T01:35:25;2.92;;;2.40;;
12878;SDS011;20617;49.476;10.986;2023-04-29T01:37:46;2.10;;;1.90;;
12878;SDS011;20617;49.476;10.986;2023-04-29T01:40:04;4.35;;;2.13;;
12878;SDS011;20617;49.476;10.986;2023-04-29T01:42:23;4.15;;;2.42;;
12878;SDS011;20617;49.476;10.986;2023-04-29T01:44:35;2.30;;;2.10;;
12878;SDS011;20617;49.476;10.986;2023-04-29T01:46:43;3.22;;;2.65;;
12878;SDS011;20617;49.476;10.986;2023-04-29T01:49:00;4.13;;;3.03;;
12878;SDS011;20617;49.476;10.986;2023-04-29T01:51:05;3.17;;;2.50;;
12878;SDS011;20617;49.476;10.986;2023-04-29T01:53:11;2.83;;;2.33;;
12878;SDS011;20617;49.476;10.986;2023-04-29T01:55:20;2.70;;;2.25;;
12878;SDS011;20617;49.476;10.986;2023-04-29T01:57:43;4.07;;;2.63;;
12878;SDS011;20617;49.476;10.986;2023-04-29T02:00:07;2.38;;;2.17;;
12878;SDS011;20617;49.476;10.986;2023-04-29T02:02:24;2.30;;;2.10;;
12878;SDS011;20617;49.476;10.986;2023-04-29T02:04:38;3.75;;;2.72;;
12878;SDS011;20617;49.476;10.986;2023-04-29T02:06:44;2.60;;;2.22;;
12878;SDS011;20617;49.476;10.986;2023-04-29T02:08:51;2.88;;;2.53;;
12878;SDS011;20617;49.476;10.986;2023-04-29T02:10:59;2.97;;;2.65;;
12878;SDS011;20617;49.476;10.986;2023-04-29T02:13:10;4.22;;;3.22;;
12878;SDS011;20617;49.476;10.986;2023-04-29T02:15:16;3.85;;;3.08;;
12878;SDS011;20617;49.476;10.986;2023-04-29T02:19:26;3.88;;;3.47;;
12878;SDS011;20617;49.476;10.986;2023-04-29T02:21:31;4.53;;;3.55;;
12878;SDS011;20617;49.476;10.986;2023-04-29T02:23:36;4.47;;;3.67;;
12878;SDS011;20617;49.476;10.986;2023-04-29T02:25:41;3.72;;;3.25;;
12878;SDS011;20617;49.476;10.986;2023-04-29T02:27:48;5.03;;;3.25;;
12878;SDS011;20617;49.476;10.986;2023-04-29T02:29:53;3.92;;;3.53;;
12878;SDS011;20617;49.476;10.986;2023-04-29T02:31:59;3.97;;;3.10;;
12878;SDS011;20617;49.476;10.986;2023-04-29T02:34:04;3.10;;;2.80;;
12878;SDS011;20617;49.476;10.986;2023-04-29T02:36:09;3.50;;;3.13;;
12878;SDS011;20617;49.476;10.986;2023-04-29T02:38:14;3.42;;;2.88;;
12878;SDS011;20617;49.476;10.986;2023-04-29T02:40:19;3.70;;;3.35;;
12878;SDS011;20617;49.476;10.986;2023-04-29T02:42:26;2.97;;;2.60;;
12878;SDS011;20617;49.476;10.986;2023-04-29T02:44:34;3.45;;;3.03;;
12878;SDS011;20617;49.476;10.986;2023-04-29T02:46:39;5.05;;;3.72;;
12878;SDS011;20617;49.476;10.986;2023-04-29T02:48:46;5.40;;;3.72;;
12878;SDS011;20617;49.476;10.986;2023-04-29T02:50:51;5.15;;;4.45;;
12878;SDS011;20617;49.476;10.986;2023-04-29T02:52:56;5.07;;;3.95;;
12878;SDS011;20617;49.476;10.986;2023-04-29T02:55:01;4.40;;;4.00;;
12878;SDS011;20617;49.476;10.986;2023-04-29T02:57:06;3.85;;;3.45;;
12878;SDS011;20617;49.476;10.986;2023-04-29T02:59:12;3.42;;;3.13;;
12878;SDS011;20617;49.476;10.986;2023-04-29T03:01:20;3.47;;;3.17;;
12878;SDS011;20617;49.476;10.986;2023-04-29T03:03:25;4.20;;;3.55;;
12878;SDS011;20617;49.476;10.986;2023-04-29T03:05:31;3.53;;;3.22;;
12878;SDS011;20617;49.476;10.986;2023-04-29T03:07:36;4.05;;;3.65;;
12878;SDS011;20617;49.476;10.986;2023-04-29T03:09:42;4.10;;;3.65;;
12878;SDS011;20617;49.476;10.986;2023-04-29T03:11:47;4.57;;;4.10;;
12878;SDS011;20617;49.476;10.986;2023-04-29T03:13:52;4.22;;;3.83;;
12878;SDS011;20617;49.476;10.986;2023-04-29T03:18:05;3.40;;;3.10;;
12878;SDS011;20617;49.476;10.986;2023-04-29T03:20:11;3.40;;;3.10;;
12878;SDS011;20617;49.476;10.986;2023-04-29T03:22:16;3.90;;;3.15;;
12878;SDS011;20617;49.476;10.986;2023-04-29T03:24:22;3.85;;;3.42;;
12878;SDS011;20617;49.476;10.986;2023-04-29T03:26:26;3.70;;;3.30;;
12878;SDS011;20617;49.476;10.986;2023-04-29T03:28:31;3.60;;;3.30;;
12878;SDS011;20617;49.476;10.986;2023-04-29T03:30:37;5.20;;;3.50;;
12878;SDS011;20617;49.476;10.986;2023-04-29T03:32:44;3.70;;;3.25;;
12878;SDS011;20617;49.476;10.986;2023-04-29T03:37:06;3.85;;;3.45;;
12878;SDS011;20617;49.476;10.986;2023-04-29T03:39:14;4.43;;;3.83;;
12878;SDS011;20617;49.476;10.986;2023-04-29T03:41:19;3.92;;;3.55;;
12878;SDS011;20617;49.476;10.986;2023-04-29T03:43:24;4.30;;;3.90;;
12878;SDS011;20617;49.476;10.986;2023-04-29T03:47:35;4.35;;;3.95;;
12878;SDS011;20617;49.476;10.986;2023-04-29T03:49:40;6.45;;;4.30;;
12878;SDS011;20617;49.476;10.986;2023-04-29T03:53:53;5.85;;;3.72;;
12878;SDS011;20617;49.476;10.986;2023-04-29T03:56:00;4.47;;;3.60;;
12878;SDS011;20617;49.476;10.986;2023-04-29T03:58:05;4.07;;;3.67;;
12878;SDS011;20617;49.476;10.986;2023-04-29T04:00:10;4.40;;;4.00;;
12878;SDS011;20617;49.476;10.986;2023-04-29T04:02:24;4.68;;;3.97;;
12878;SDS011;20617;49.476;10.986;2023-04-29T04:06:34;4.25;;;3.85;;
12878;SDS011;20617;49.476;10.986;2023-04-29T04:10:51;4.55;;;4.15;;
12878;SDS011;20617;49.476;10.986;2023-04-29T04:13:14;6.88;;;4.78;;
12878;SDS011;20617;49.476;10.986;2023-04-29T04:15:19;5.22;;;4.70;;
12878;SDS011;20617;49.476;10.986;2023-04-29T04:19:29;4.53;;;4.13;;
12878;SDS011;20617;49.476;10.986;2023-04-29T04:21:34;4.55;;;4.15;;
12878;SDS011;20617;49.476;10.986;2023-04-29T04:23:45;6.32;;;4.72;;
12878;SDS011;20617;49.476;10.986;2023-04-29T04:25:55;5.10;;;4.40;;
12878;SDS011;20617;49.476;10.986;2023-04-29T04:28:33;4.80;;;4.30;;
12878;SDS011;20617;49.476;10.986;2023-04-29T04:30:43;5.10;;;4.30;;
12878;SDS011;20617;49.476;10.986;2023-04-29T04:32:50;5.00;;;4.35;;
12878;SDS011;20617;49.476;10.986;2023-04-29T04:37:00;4.43;;;4.03;;
12878;SDS011;20617;49.476;10.986;2023-04-29T04:39:08;4.57;;;4.18;;
12878;SDS011;20617;49.476;10.986;2023-04-29T04:41:13;5.35;;;4.35;;
12878;SDS011;20617;49.476;10.986;2023-04-29T04:43:20;5.38;;;4.88;;
12878;SDS011;20617;49.476;10.986;2023-04-29T04:45:26;6.50;;;5.18;;
12878;SDS011;20617;49.476;10.986;2023-04-29T04:47:33;6.13;;;5.13;;
12878;SDS011;20617;49.476;10.986;2023-04-29T04:49:45;4.22;;;3.83;;
12878;SDS011;20617;49.476;10.986;2023-04-29T04:51:51;7.35;;;4.75;;
12878;SDS011;20617;49.476;10.986;2023-04-29T04:53:55;6.80;;;5.53;;
12878;SDS011;20617;49.476;10.986;2023-04-29T04:56:06;5.72;;;4.47;;
12878;SDS011;20617;49.476;10.986;2023-04-29T04:58:12;7.75;;;5.22;;
12878;SDS011;20617;49.476;10.986;2023-04-29T05:02:21;5.45;;;4.68;;
12878;SDS011;20617;49.476;10.986;2023-04-29T05:04:27;6.43;;;4.57;;
12878;SDS011;20617;49.476;10.986;2023-04-29T05:06:33;5.95;;;4.53;;
12878;SDS011;20617;49.476;10.986;2023-04-29T05:08:38;4.72;;;4.00;;
12878;SDS011;20617;49.476;10.986;2023-04-29T05:10:46;5.43;;;4.20;;
12878;SDS011;20617;49.476;10.986;2023-04-29T05:12:55;4.32;;;3.92;;
12878;SDS011;20617;49.476;10.986;2023-04-29T05:15:00;5.35;;;4.22;;
12878;SDS011;20617;49.476;10.986;2023-04-29T05:17:05;4.28;;;3.55;;
12878;SDS011;20617;49.476;10.986;2023-04-29T05:19:11;4.72;;;4.22;;
12878;SDS011;20617;49.476;10.986;2023-04-29T05:23:21;5.68;;;4.13;;
12878;SDS011;20617;49.476;10.986;2023-04-29T05:25:26;5.88;;;4.03;;
12878;SDS011;20617;49.476;10.986;2023-04-29T05:27:32;4.30;;;3.90;;
12878;SDS011;20617;49.476;10.986;2023-04-29T05:29:43;4.80;;;4.05;;
12878;SDS011;20617;49.476;10.986;2023-04-29T05:31:48;4.75;;;3.88;;
12878;SDS011;20617;49.476;10.986;2023-04-29T05:35:59;5.78;;;4.78;;
12878;SDS011;20617;49.476;10.986;2023-04-29T05:38:05;5.80;;;5.05;;
12878;SDS011;20617;49.476;10.986;2023-04-29T05:40:13;6.85;;;4.95;;
12878;SDS011;20617;49.476;10.986;2023-04-29T05:42:18;5.88;;;5.22;;
12878;SDS011;20617;49.476;10.986;2023-04-29T05:44:24;5.57;;;4.88;;
12878;SDS011;20617;49.476;10.986;2023-04-29T05:46:32;7.32;;;5.80;;
12878;SDS011;20617;49.476;10.986;2023-04-29T05:48:37;5.68;;;5.18;;
12878;SDS011;20617;49.476;10.986;2023-04-29T05:50:44;6.90;;;5.53;;
12878;SDS011;20617;49.476;10.986;2023-04-29T05:52:49;6.10;;;5.50;;
12878;SDS011;20617;49.476;10.986;2023-04-29T05:54:55;6.88;;;6.18;;
12878;SDS011;20617;49.476;10.986;2023-04-29T05:59:06;5.88;;;5.28;;
12878;SDS011;20617;49.476;10.986;2023-04-29T06:03:18;6.55;;;5.82;;
12878;SDS011;20617;49.476;10.986;2023-04-29T06:05:30;6.87;;;6.27;;
12878;SDS011;20617;49.476;10.986;2023-04-29T06:08:03;6.15;;;5.13;;
12878;SDS011;20617;49.476;10.986;2023-04-29T06:10:20;8.80;;;6.13;;
12878;SDS011;20617;49.476;10.986;2023-04-29T06:14:32;7.57;;;6.85;;
12878;SDS011;20617;49.476;10.986;2023-04-29T06:16:37;8.27;;;6.35;;
12878;SDS011;20617;49.476;10.986;2023-04-29T06:18:45;8.18;;;7.38;;
12878;SDS011;20617;49.476;10.986;2023-04-29T06:20:50;8.25;;;6.45;;
12878;SDS011;20617;49.476;10.986;2023-04-29T06:22:55;7.55;;;6.70;;
12878;SDS011;20617;49.476;10.986;2023-04-29T06:25:02;8.23;;;6.80;;
12878;SDS011;20617;49.476;10.986;2023-04-29T06:27:21;8.18;;;6.80;;
12878;SDS011;20617;49.476;10.986;2023-04-29T06:31:31;7.85;;;7.05;;
12878;SDS011;20617;49.476;10.986;2023-04-29T06:33:37;7.32;;;6.32;;
12878;SDS011;20617;49.476;10.986;2023-04-29T06:35:46;7.95;;;7.15;;
12878;SDS011;20617;49.476;10.986;2023-04-29T06:38:17;9.10;;;7.18;;
12878;SDS011;20617;49.476;10.986;2023-04-29T06:40:45;10.88;;;7.55;;
12878;SDS011;20617;49.476;10.986;2023-04-29T06:42:50;8.07;;;7.28;;
12878;SDS011;20617;49.476;10.986;2023-04-29T06:45:08;9.68;;;6.50;;
12878;SDS011;20617;49.476;10.986;2023-04-29T06:47:19;7.70;;;6.25;;
12878;SDS011;20617;49.476;10.986;2023-04-29T06:49:43;7.20;;;6.40;;
12878;SDS011;20617;49.476;10.986;2023-04-29T06:51:51;7.75;;;6.63;;
12878;SDS011;20617;49.476;10.986;2023-04-29T06:54:00;8.13;;;7.00;;
12878;SDS011;20617;49.476;10.986;2023-04-29T06:56:05;6.93;;;6.22;;
12878;SDS011;20617;49.476;10.986;2023-04-29T06:58:11;7.10;;;6.40;;
12878;SDS011;20617;49.476;10.986;2023-04-29T07:00:16;7.43;;;6.68;;
12878;SDS011;20617;49.476;10.986;2023-04-29T07:02:23;7.35;;;6.55;;
12878;SDS011;20617;49.476;10.986;2023-04-29T07:04:28;7.53;;;6.38;;
12878;SDS011;20617;49.476;10.986;2023-04-29T07:06:33;7.90;;;7.10;;
12878;SDS011;20617;49.476;10.986;2023-04-29T07:08:45;7.28;;;6.57;;
12878;SDS011;20617;49.476;10.986;2023-04-29T07:10:54;8.38;;;6.95;;
12878;SDS011;20617;49.476;10.986;2023-04-29T07:12:59;7.38;;;6.68;;
12878;SDS011;20617;49.476;10.986;2023-04-29T07:15:05;7.45;;;6.22;;
12878;SDS011;20617;49.476;10.986;2023-04-29T07:17:11;8.10;;;5.65;;
12878;SDS011;20617;49.476;10.986;2023-04-29T07:19:16;7.55;;;6.82;;
12878;SDS011;20617;49.476;10.986;2023-04-29T07:21:21;7.88;;;7.07;;
12878;SDS011;20617;49.476;10.986;2023-04-29T07:23:27;9.75;;;6.30;;
12878;SDS011;20617;49.476;10.986;2023-04-29T07:25:35;8.10;;;7.00;;
12878;SDS011;20617;49.476;10.986;2023-04-29T07:27:40;10.52;;;7.15;;
12878;SDS011;20617;49.476;10.986;2023-04-29T07:31:50;7.80;;;7.00;;
12878;SDS011;20617;49.476;10.986;2023-04-29T07:33:55;7.60;;;6.80;;
12878;SDS011;20617;49.476;10.986;2023-04-29T07:36:00;9.07;;;7.40;;
12878;SDS011;20617;49.476;10.986;2023-04-29T07:38:05;9.00;;;6.93;;
12878;SDS011;20617;49.476;10.986;2023-04-29T07:42:19;8.75;;;7.53;;
12878;SDS011;20617;49.476;10.986;2023-04-29T07:44:24;9.68;;;7.60;;
12878;SDS011;20617;49.476;10.986;2023-04-29T07:46:30;8.27;;;7.18;;
12878;SDS011;20617;49.476;10.986;2023-04-29T07:48:36;8.90;;;6.65;;
12878;SDS011;20617;49.476;10.986;2023-04-29T07:50:42;7.57;;;6.68;;
12878;SDS011;20617;49.476;10.986;2023-04-29T07:52:47;8.02;;;7.22;;
12878;SDS011;20617;49.476;10.986;2023-04-29T07:54:53;10.07;;;7.45;;
12878;SDS011;20617;49.476;10.986;2023-04-29T07:56:59;8.35;;;6.93;;
12878;SDS011;20617;49.476;10.986;2023-04-29T07:59:07;7.57;;;6.88;;
12878;SDS011;20617;49.476;10.986;2023-04-29T08:01:12;7.85;;;6.75;;
12878;SDS011;20617;49.476;10.986;2023-04-29T08:05:23;9.02;;;8.00;;
12878;SDS011;20617;49.476;10.986;2023-04-29T08:07:28;9.93;;;8.27;;
12878;SDS011;20617;49.476;10.986;2023-04-29T08:09:34;9.25;;;7.75;;
12878;SDS011;20617;49.476;10.986;2023-04-29T08:13:46;9.23;;;8.30;;
12878;SDS011;20617;49.476;10.986;2023-04-29T08:15:54;10.00;;;8.63;;
12878;SDS011;20617;49.476;10.986;2023-04-29T08:17:59;10.32;;;9.10;;
12878;SDS011;20617;49.476;10.986;2023-04-29T08:20:07;9.23;;;7.57;;
12878;SDS011;20617;49.476;10.986;2023-04-29T08:22:12;8.23;;;7.40;;
12878;SDS011;20617;49.476;10.986;2023-04-29T08:24:17;9.50;;;7.72;;
12878;SDS011;20617;49.476;10.986;2023-04-29T08:26:23;8.50;;;7.57;;
12878;SDS011;20617;49.476;10.986;2023-04-29T08:28:28;8.13;;;7.43;;
12878;SDS011;20617;49.476;10.986;2023-04-29T08:30:35;8.50;;;7.63;;
12878;SDS011;20617;49.476;10.986;2023-04-29T08:32:44;8.02;;;7.22;;
12878;SDS011;20617;49.476;10.986;2023-04-29T08:34:49;8.00;;;7.15;;
12878;SDS011;20617;49.476;10.986;2023-04-29T08:36:55;8.57;;;6.97;;
12878;SDS011;20617;49.476;10.986;2023-04-29T08:39:00;7.32;;;6.60;;
12878;SDS011;20617;49.476;10.986;2023-04-29T08:41:07;7.65;;;6.88;;
12878;SDS011;20617;49.476;10.986;2023-04-29T08:43:13;9.13;;;7.25;;
12878;SDS011;20617;49.476;10.986;2023-04-29T08:45:18;9.05;;;7.28;;
12878;SDS011;20617;49.476;10.986;2023-04-29T08:47:24;7.15;;;6.50;;
12878;SDS011;20617;49.476;10.986;2023-04-29T08:49:32;8.00;;;7.10;;
12878;SDS011;20617;49.476;10.986;2023-04-29T08:51:38;7.07;;;6.22;;
12878;SDS011;20617;49.476;10.986;2023-04-29T08:53:43;7.70;;;6.40;;
12878;SDS011;20617;49.476;10.986;2023-04-29T08:55:48;6.32;;;5.65;;
12878;SDS011;20617;49.476;10.986;2023-04-29T09:00:00;6.53;;;5.78;;
12878;SDS011;20617;49.476;10.986;2023-04-29T09:02:06;6.93;;;6.22;;
12878;SDS011;20617;49.476;10.986;2023-04-29T09:04:20;6.18;;;5.32;;
12878;SDS011;20617;49.476;10.986;2023-04-29T09:06:42;6.40;;;5.70;;
12878;SDS011;20617;49.476;10.986;2023-04-29T09:08:47;6.63;;;5.78;;
12878;SDS011;20617;49.476;10.986;2023-04-29T09:10:53;6.10;;;5.20;;
12878;SDS011;20617;49.476;10.986;2023-04-29T09:12:59;6.45;;;5.85;;
12878;SDS011;20617;49.476;10.986;2023-04-29T09:15:04;6.90;;;5.70;;
12878;SDS011;20617;49.476;10.986;2023-04-29T09:17:10;7.47;;;6.40;;
12878;SDS011;20617;49.476;10.986;2023-04-29T09:19:29;6.00;;;5.43;;
12878;SDS011;20617;49.476;10.986;2023-04-29T09:21:35;6.25;;;5.65;;
12878;SDS011;20617;49.476;10.986;2023-04-29T09:23:43;6.15;;;5.25;;
12878;SDS011;20617;49.476;10.986;2023-04-29T09:25:54;6.53;;;5.93;;
12878;SDS011;20617;49.476;10.986;2023-04-29T09:28:01;6.75;;;6.05;;
12878;SDS011;20617;49.476;10.986;2023-04-29T09:30:18;8.25;;;6.93;;
12878;SDS011;20617;49.476;10.986;2023-04-29T09:34:31;7.28;;;6.40;;
12878;SDS011;20617;49.476;10.986;2023-04-29T09:36:39;9.43;;;7.32;;
12878;SDS011;20617;49.476;10.986;2023-04-29T09:38:54;7.80;;;6.97;;
12878;SDS011;20617;49.476;10.986;2023-04-29T09:40:59;8.13;;;6.85;;
12878;SDS011;20617;49.476;10.986;2023-04-29T09:43:18;7.70;;;6.70;;
12878;SDS011;20617;49.476;10.986;2023-04-29T09:45:31;7.60;;;6.80;;
12878;SDS011;20617;49.476;10.986;2023-04-29T09:47:37;6.60;;;5.68;;
12878;SDS011;20617;49.476;10.986;2023-04-29T09:49:43;8.20;;;6.13;;
12878;SDS011;20617;49.476;10.986;2023-04-29T09:51:54;9.13;;;7.07;;
12878;SDS011;20617;49.476;10.986;2023-04-29T09:54:03;7.10;;;6.40;;
12878;SDS011;20617;49.476;10.986;2023-04-29T09:56:24;7.00;;;6.30;;
12878;SDS011;20617;49.476;10.986;2023-04-29T09:58:32;6.60;;;5.90;;
12878;SDS011;20617;49.476;10.986;2023-04-29T10:00:39;6.50;;;5.38;;
12878;SDS011;20617;49.476;10.986;2023-04-29T10:02:45;6.97;;;6.28;;
12878;SDS011;20617;49.476;10.986;2023-04-29T10:04:52;6.82;;;6.10;;
12878;SDS011;20617;49.476;10.986;2023-04-29T10:07:01;5.78;;;5.22;;
12878;SDS011;20617;49.476;10.986;2023-04-29T10:11:16;5.78;;;5.22;;
12878;SDS011;20617;49.476;10.986;2023-04-29T10:13:22;7.75;;;5.45;;
12878;SDS011;20617;49.476;10.986;2023-04-29T10:15:31;6.50;;;5.90;;
12878;SDS011;20617;49.476;10.986;2023-04-29T10:17:42;5.60;;;5.10;;
12878;SDS011;20617;49.476;10.986;2023-04-29T10:19:51;6.45;;;5.32;;
12878;SDS011;20617;49.476;10.986;2023-04-29T10:22:04;5.97;;;5.18;;
12878;SDS011;20617;49.476;10.986;2023-04-29T10:24:14;7.53;;;5.78;;
12878;SDS011;20617;49.476;10.986;2023-04-29T10:26:22;7.05;;;5.75;;
12878;SDS011;20617;49.476;10.986;2023-04-29T10:28:30;7.07;;;5.30;;
12878;SDS011;20617;49.476;10.986;2023-04-29T10:30:36;8.20;;;6.40;;
12878;SDS011;20617;49.476;10.986;2023-04-29T10:32:44;6.53;;;5.93;;
12878;SDS011;20617;49.476;10.986;2023-04-29T10:34:53;9.25;;;5.95;;
12878;SDS011;20617;49.476;10.986;2023-04-29T10:36:59;7.38;;;6.47;;
12878;SDS011;20617;49.476;10.986;2023-04-29T10:39:07;6.68;;;5.97;;
12878;SDS011;20617;49.476;10.986;2023-04-29T10:41:21;6.38;;;5.50;;
12878;SDS011;20617;49.476;10.986;2023-04-29T10:43:29;7.00;;;5.50;;
12878;SDS011;20617;49.476;10.986;2023-04-29T10:45:35;7.05;;;5.55;;
12878;SDS011;20617;49.476;10.986;2023-04-29T10:47:54;5.88;;;4.90;;
12878;SDS011;20617;49.476;10.986;2023-04-29T10:50:12;7.18;;;5.72;;
12878;SDS011;20617;49.476;10.986;2023-04-29T10:52:18;9.35;;;4.95;;
12878;SDS011;20617;49.476;10.986;2023-04-29T10:54:23;6.78;;;5.63;;
12878;SDS011;20617;49.476;10.986;2023-04-29T10:56:37;6.82;;;5.72;;
12878;SDS011;20617;49.476;10.986;2023-04-29T10:58:43;7.97;;;5.82;;
12878;SDS011;20617;49.476;10.986;2023-04-29T11:00:49;7.47;;;6.65;;
12878;SDS011;20617;49.476;10.986;2023-04-29T11:05:05;7.80;;;5.45;;
12878;SDS011;20617;49.476;10.986;2023-04-29T11:07:21;8.07;;;6.40;;
12878;SDS011;20617;49.476;10.986;2023-04-29T11:09:30;6.13;;;5.47;;
12878;SDS011;20617;49.476;10.986;2023-04-29T11:11:42;5.93;;;5.20;;
12878;SDS011;20617;49.476;10.986;2023-04-29T11:13:49;6.00;;;5.40;;
12878;SDS011;20617;49.476;10.986;2023-04-29T11:16:01;7.35;;;5.72;;
12878;SDS011;20617;49.476;10.986;2023-04-29T11:18:09;5.25;;;4.65;;
12878;SDS011;20617;49.476;10.986;2023-04-29T11:20:15;6.13;;;5.00;;
12878;SDS011;20617;49.476;10.986;2023-04-29T11:24:29;7.25;;;5.72;;
12878;SDS011;20617;49.476;10.986;2023-04-29T11:26:34;6.00;;;5.18;;
12878;SDS011;20617;49.476;10.986;2023-04-29T11:28:42;5.90;;;5.30;;
12878;SDS011;20617;49.476;10.986;2023-04-29T11:30:47;5.75;;;4.95;;
12878;SDS011;20617;49.476;10.986;2023-04-29T11:32:53;6.72;;;4.60;;
12878;SDS011;20617;49.476;10.986;2023-04-29T11:35:08;5.32;;;4.72;;
12878;SDS011;20617;49.476;10.986;2023-04-29T11:37:18;6.65;;;5.57;;
12878;SDS011;20617;49.476;10.986;2023-04-29T11:39:27;5.47;;;4.60;;
12878;SDS011;20617;49.476;10.986;2023-04-29T11:41:38;6.18;;;5.10;;
12878;SDS011;20617;49.476;10.986;2023-04-29T11:43:47;6.93;;;5.55;;
12878;SDS011;20617;49.476;10.986;2023-04-29T11:45:59;7.55;;;5.40;;
12878;SDS011;20617;49.476;10.986;2023-04-29T11:48:04;6.35;;;4.20;;
12878;SDS011;20617;49.476;10.986;2023-04-29T11:50:09;5.05;;;4.55;;
12878;SDS011;20617;49.476;10.986;2023-04-29T11:52:16;7.85;;;5.00;;
12878;SDS011;20617;49.476;10.986;2023-04-29T11:54:21;5.63;;;4.88;;
12878;SDS011;20617;49.476;10.986;2023-04-29T11:56:29;5.85;;;4.25;;
12878;SDS011;20617;49.476;10.986;2023-04-29T12:00:41;4.75;;;4.18;;
12878;SDS011;20617;49.476;10.986;2023-04-29T12:02:46;4.43;;;3.28;;
12878;SDS011;20617;49.476;10.986;2023-04-29T12:06:58;5.05;;;3.80;;
12878;SDS011;20617;49.476;10.986;2023-04-29T12:09:03;3.70;;;3.40;;
12878;SDS011;20617;49.476;10.986;2023-04-29T12:11:09;6.07;;;3.85;;
12878;SDS011;20617;49.476;10.986;2023-04-29T12:15:19;4.40;;;3.33;;
12878;SDS011;20617;49.476;10.986;2023-04-29T12:17:27;4.60;;;3.65;;
12878;SDS011;20617;49.476;10.986;2023-04-29T12:19:32;4.65;;;4.10;;
12878;SDS011;20617;49.476;10.986;2023-04-29T12:21:46;4.38;;;3.75;;
12878;SDS011;20617;49.476;10.986;2023-04-29T12:23:53;5.32;;;3.63;;
12878;SDS011;20617;49.476;10.986;2023-04-29T12:25:58;3.83;;;3.15;;
12878;SDS011;20617;49.476;10.986;2023-04-29T12:28:03;5.03;;;3.97;;
12878;SDS011;20617;49.476;10.986;2023-04-29T12:30:09;4.05;;;3.63;;
12878;SDS011;20617;49.476;10.986;2023-04-29T12:32:15;5.20;;;4.15;;
12878;SDS011;20617;49.476;10.986;2023-04-29T12:34:26;4.43;;;3.90;;
12878;SDS011;20617;49.476;10.986;2023-04-29T12:36:32;4.53;;;3.85;;
12878;SDS011;20617;49.476;10.986;2023-04-29T12:38:38;5.90;;;4.05;;
12878;SDS011;20617;49.476;10.986;2023-04-29T12:40:43;4.75;;;3.55;;
12878;SDS011;20617;49.476;10.986;2023-04-29T12:42:49;4.35;;;3.08;;
12878;SDS011;20617;49.476;10.986;2023-04-29T12:44:54;3.65;;;3.25;;
12878;SDS011;20617;49.476;10.986;2023-04-29T12:47:05;4.13;;;3.70;;
12878;SDS011;20617;49.476;10.986;2023-04-29T12:49:11;3.88;;;3.00;;
12878;SDS011;20617;49.476;10.986;2023-04-29T12:51:19;3.45;;;3.13;;
12878;SDS011;20617;49.476;10.986;2023-04-29T12:53:24;4.90;;;2.90;;
12878;SDS011;20617;49.476;10.986;2023-04-29T12:55:30;3.80;;;3.25;;
12878;SDS011;20617;49.476;10.986;2023-04-29T12:57:36;5.07;;;3.90;;
12878;SDS011;20617;49.476;10.986;2023-04-29T12:59:41;3.80;;;3.30;;
12878;SDS011;20617;49.476;10.986;2023-04-29T13:01:46;4.38;;;3.60;;
12878;SDS011;20617;49.476;10.986;2023-04-29T13:03:51;4.03;;;3.20;;
12878;SDS011;20617;49.476;10.986;2023-04-29T13:05:56;4.68;;;3.30;;
12878;SDS011;20617;49.476;10.986;2023-04-29T13:10:09;4.57;;;3.65;;
12878;SDS011;20617;49.476;10.986;2023-04-29T13:12:16;4.47;;;3.40;;
12878;SDS011;20617;49.476;10.986;2023-04-29T13:14:20;4.05;;;3.60;;
12878;SDS011;20617;49.476;10.986;2023-04-29T13:16:25;6.78;;;3.50;;
12878;SDS011;20617;49.476;10.986;2023-04-29T13:18:31;4.25;;;3.25;;
12878;SDS011;20617;49.476;10.986;2023-04-29T13:20:37;3.42;;;3.10;;
12878;SDS011;20617;49.476;10.986;2023-04-29T13:22:44;3.35;;;2.83;;
12878;SDS011;20617;49.476;10.986;2023-04-29T13:24:51;3.05;;;2.63;;
12878;SDS011;20617;49.476;10.986;2023-04-29T13:26:57;3.53;;;3.10;;
12878;SDS011;20617;49.476;10.986;2023-04-29T13:29:03;4.20;;;2.38;;
12878;SDS011;20617;49.476;10.986;2023-04-29T13:31:08;3.70;;;2.80;;
12878;SDS011;20617;49.476;10.986;2023-04-29T13:33:13;3.25;;;2.95;;
12878;SDS011;20617;49.476;10.986;2023-04-29T13:35:19;4.97;;;2.72;;
12878;SDS011;20617;49.476;10.986;2023-04-29T13:37:24;3.60;;;2.53;;
12878;SDS011;20617;49.476;10.986;2023-04-29T13:39:29;3.03;;;2.72;;
12878;SDS011;20617;49.476;10.986;2023-04-29T13:41:41;2.55;;;2.30;;
12878;SDS011;20617;49.476;10.986;2023-04-29T13:43:47;3.45;;;2.70;;